Time;durP1;ratioP1;P1;durP2;ratioP2;P2;SDS_P1;SDS_P2;PMS_P1;PMS_P2;Temp;Humidity;BMP_temperature;BMP_pressure;BME280_temperature;BME280_humidity;BME280_pressure;Samples;Min_cycle;Max_cycle;Signal;HPM_P1;HPM_P2
2022/04/17 00:00:11;;;;;;;19.23;11.98;;;;;;;4.33;100.00;102315.66;5973870;29;20052;-86
2022/04/17 00:03:13;;;;;;;20.30;12.43;;;;;;;4.34;100.00;102316.50;5977167;29;20042;-86
2022/04/17 00:06:14;;;;;;;18.88;12.52;;;;;;;4.29;100.00;102316.59;5974672;29;20103;-86
2022/04/17 00:09:16;;;;;;;20.10;12.43;;;;;;;4.25;100.00;102315.84;5975018;29;20050;-86
2022/04/17 00:12:18;;;;;;;16.70;11.95;;;;;;;4.29;100.00;102317.44;5976394;29;20050;-86
2022/04/17 00:15:20;;;;;;;20.60;12.60;;;;;;;4.26;100.00;102311.56;5978529;29;20050;-86
2022/04/17 00:18:22;;;;;;;21.15;13.27;;;;;;;4.22;100.00;102309.94;5976869;29;20418;-85
2022/04/17 00:21:23;;;;;;;19.52;13.00;;;;;;;4.21;100.00;102311.66;5981195;29;20398;-86
2022/04/17 00:24:27;;;;;;;21.17;13.27;;;;;;;4.24;100.00;102306.47;5973386;29;20192;-86
2022/04/17 00:27:28;;;;;;;19.52;12.90;;;;;;;4.23;100.00;102311.63;5979094;29;20077;-86
2022/04/17 00:30:30;;;;;;;19.23;13.15;;;;;;;4.26;100.00;102307.28;5977530;29;20530;-86
2022/04/17 00:33:32;;;;;;;17.23;12.73;;;;;;;4.26;100.00;102314.97;5972526;29;20050;-86
2022/04/17 00:36:34;;;;;;;20.00;12.88;;;;;;;4.22;100.00;102313.34;5980840;29;20046;-86
2022/04/17 00:39:35;;;;;;;21.98;13.57;;;;;;;4.24;100.00;102305.63;5979857;29;20045;-86
2022/04/17 00:42:40;;;;;;;18.83;12.93;;;;;;;4.19;100.00;102303.16;5982493;29;20112;-86
2022/04/17 00:45:42;;;;;;;19.85;12.70;;;;;;;4.12;100.00;102299.06;5986104;29;20050;-86
2022/04/17 00:48:44;;;;;;;18.80;12.63;;;;;;;4.02;100.00;102298.41;5979975;29;20057;-86
2022/04/17 00:51:47;;;;;;;18.55;12.38;;;;;;;3.91;100.00;102297.00;5980698;29;20050;-86
2022/04/17 00:54:49;;;;;;;21.42;13.10;;;;;;;3.79;100.00;102300.66;5980790;29;20052;-86
2022/04/17 00:57:51;;;;;;;19.55;12.93;;;;;;;3.72;100.00;102294.00;5975933;29;20098;-86
2022/04/17 01:00:53;;;;;;;19.73;13.63;;;;;;;3.62;100.00;102289.06;5983217;29;20393;-86
2022/04/17 01:03:55;;;;;;;19.45;12.90;;;;;;;3.54;100.00;102298.63;5973114;29;20042;-86
2022/04/17 01:06:56;;;;;;;21.17;14.43;;;;;;;3.49;100.00;102294.50;5989862;29;20043;-86
2022/04/17 01:10:00;;;;;;;23.48;14.77;;;;;;;3.43;100.00;102290.34;5984341;29;20054;-86
2022/04/17 01:13:04;;;;;;;19.98;13.98;;;;;;;3.40;100.00;102282.72;5970180;29;20057;-86
2022/04/17 01:16:06;;;;;;;21.38;15.07;;;;;;;3.39;100.00;102281.88;5977504;29;20078;-86
2022/04/17 01:19:11;;;;;;;25.60;15.43;;;;;;;3.38;100.00;102284.44;5977485;29;20049;-86
2022/04/17 01:22:13;;;;;;;26.05;16.23;;;;;;;3.40;100.00;102282.72;5973857;29;20517;-86
2022/04/17 01:28:35;;;;;;;;;;;;;;;3.43;100.00;102280.94;5981841;29;20054;-86
2022/04/17 01:31:37;;;;;;;31.95;17.55;;;;;;;3.43;100.00;102282.66;5974079;29;19940;-86
2022/04/17 01:34:39;;;;;;;30.23;17.92;;;;;;;3.41;100.00;102287.81;5974515;29;20066;-85
2022/04/17 01:37:41;;;;;;;26.75;17.40;;;;;;;3.38;100.00;102277.66;5975039;29;20046;-86
2022/04/17 01:40:42;;;;;;;25.08;15.98;;;;;;;3.36;100.00;102278.56;5977410;29;20038;-86
2022/04/17 01:43:44;;;;;;;27.80;16.60;;;;;;;3.34;100.00;102275.19;5979794;29;20149;-86
2022/04/17 01:46:47;;;;;;;24.05;15.93;;;;;;;3.32;100.00;102269.25;5974156;29;20054;-86
2022/04/17 01:49:48;;;;;;;22.27;15.40;;;;;;;3.29;100.00;102269.31;5973147;29;20489;-86
2022/04/17 01:52:50;;;;;;;26.10;16.15;;;;;;;3.24;100.00;102265.13;5977235;29;20165;-86
2022/04/17 01:55:52;;;;;;;24.90;16.38;;;;;;;3.22;100.00;102260.91;5971610;29;20043;-86
2022/04/17 01:58:53;;;;;;;22.05;14.57;;;;;;;3.26;100.00;102261.69;5993324;29;20638;-86
2022/04/17 02:01:56;;;;;;;25.30;14.73;;;;;;;3.25;100.00;102253.16;5978421;29;20043;-86
2022/04/17 02:04:57;;;;;;;18.65;14.18;;;;;;;3.23;100.00;102253.22;5959071;29;20066;-86
2022/04/17 02:07:59;;;;;;;20.52;13.60;;;;;;;3.21;100.00;102244.72;5979111;29;20120;-86
2022/04/17 02:11:02;;;;;;;25.10;14.73;;;;;;;3.14;100.00;102252.56;5972432;29;20043;-86
2022/04/17 02:14:06;;;;;;;21.77;14.77;;;;;;;3.09;100.00;102236.44;5989416;29;20055;-86
2022/04/17 02:17:07;;;;;;;23.67;15.20;;;;;;;3.06;100.00;102239.91;5964516;29;20051;-86
2022/04/17 02:20:11;;;;;;;24.85;15.68;;;;;;;3.07;100.00;102235.63;5985442;29;20050;-86
2022/04/17 02:23:14;;;;;;;24.20;15.57;;;;;;;3.02;100.00;102225.47;5983403;29;20051;-86
2022/04/17 02:26:18;;;;;;;26.95;16.48;;;;;;;3.00;100.00;102227.22;5984473;29;20046;-86
2022/04/17 02:29:20;;;;;;;29.25;16.35;;;;;;;2.99;100.00;102225.56;5996800;29;20073;-86
2022/04/17 02:32:22;;;;;;;25.63;15.82;;;;;;;2.97;100.00;102215.34;5966391;29;20050;-86
2022/04/17 02:35:23;;;;;;;25.40;15.57;;;;;;;2.98;100.00;102224.72;5989665;29;20046;-86
2022/04/17 02:38:26;;;;;;;25.20;15.73;;;;;;;2.99;100.00;102225.56;5973616;29;20129;-85
2022/04/17 02:41:27;;;;;;;25.73;14.82;;;;;;;2.99;100.00;102235.78;5977706;29;20094;-86
2022/04/17 02:44:29;;;;;;;26.55;15.75;;;;;;;2.99;100.00;102230.66;5972480;29;20042;-86
2022/04/17 02:47:44;;;;;;;22.88;14.85;;;;;;;2.97;100.00;102225.56;5985337;29;20556;-86
2022/04/17 02:50:47;;;;;;;24.02;14.90;;;;;;;2.95;100.00;102221.38;5969051;29;20055;-85
2022/04/17 02:53:48;;;;;;;26.98;16.52;;;;;;;2.78;100.00;102226.78;5974149;29;20073;-86
2022/04/17 02:56:50;;;;;;;26.65;16.90;;;;;;;2.73;100.00;102221.78;5975955;29;20425;-86
2022/04/17 02:59:52;;;;;;;24.90;15.82;;;;;;;2.73;100.00;102219.25;5988637;29;20037;-86
2022/04/17 03:06:15;;;;;;;25.85;15.45;;;;;;;2.67;100.00;102218.50;5974728;29;20057;-86
2022/04/17 03:09:18;;;;;;;24.58;15.00;;;;;;;2.68;100.00;102220.19;5964509;29;20050;-85
2022/04/17 03:12:20;;;;;;;23.63;15.55;;;;;;;2.62;100.00;102216.03;5990041;29;20526;-86
2022/04/17 03:15:22;;;;;;;20.98;13.82;;;;;;;2.61;100.00;102218.59;5971500;29;20894;-86
2022/04/17 03:18:24;;;;;;;22.88;15.20;;;;;;;2.59;100.00;102224.59;5989163;29;20042;-86
2022/04/17 03:21:26;;;;;;;21.92;14.68;;;;;;;2.59;100.00;102214.38;5992935;29;20050;-85
2022/04/17 03:24:27;;;;;;;23.67;14.57;;;;;;;2.53;100.00;102205.97;5978670;29;20489;-85
2022/04/17 03:27:29;;;;;;;23.17;15.15;;;;;;;2.51;100.00;102205.16;5995467;29;20191;-86
2022/04/17 03:30:31;;;;;;;23.80;15.18;;;;;;;2.49;100.00;102204.34;5982858;29;20042;-85
2022/04/17 03:33:32;;;;;;;27.65;15.68;;;;;;;2.46;100.00;102201.81;5986533;29;20050;-85
2022/04/17 03:36:38;;;;;;;26.83;15.95;;;;;;;2.40;100.00;102202.78;5973943;29;20883;-85
2022/04/17 03:39:40;;;;;;;23.63;15.15;;;;;;;2.34;100.00;102193.53;5971049;29;20047;-85
2022/04/17 03:42:42;;;;;;;19.80;14.52;;;;;;;2.32;100.00;102191.88;5981046;29;20818;-85
2022/04/17 03:45:47;;;;;;;26.23;16.20;;;;;;;2.30;100.00;102183.38;5988074;29;20061;-86
2022/04/17 03:48:49;;;;;;;19.40;14.60;;;;;;;2.23;100.00;102185.19;5983460;29;20051;-85
2022/04/17 03:51:51;;;;;;;20.63;13.80;;;;;;;2.17;100.00;102192.13;5980276;29;20057;-85
2022/04/17 03:54:53;;;;;;;23.30;14.82;;;;;;;2.09;100.00;102188.00;5972822;29;20050;-85
2022/04/17 03:57:54;;;;;;;21.35;14.52;;;;;;;2.04;100.00;102187.25;5983460;29;20061;-85
2022/04/17 04:00:56;;;;;;;22.38;15.40;;;;;;;1.96;100.00;102180.56;5988704;29;20042;-86
2022/04/17 04:03:58;;;;;;;23.70;15.48;;;;;;;1.95;100.00;102177.16;5993040;29;20051;-85
2022/04/17 04:07:00;;;;;;;22.17;14.10;;;;;;;1.93;100.00;102173.78;5975367;29;20059;-85
2022/04/17 04:10:06;;;;;;;21.48;13.75;;;;;;;1.91;100.00;102168.72;5981220;29;20050;-86
2022/04/17 04:13:08;;;;;;;20.63;14.32;;;;;;;1.90;100.00;102159.38;5986074;29;20050;-86
2022/04/17 04:16:11;;;;;;;20.30;13.13;;;;;;;1.91;100.00;102155.97;6000338;29;20132;-85
2022/04/17 04:19:13;;;;;;;17.92;13.07;;;;;;;1.93;100.00;102155.91;5989305;29;20716;-85
2022/04/17 04:22:15;;;;;;;20.85;12.90;;;;;;;1.96;100.00;102153.31;5982942;29;20038;-85
2022/04/17 04:25:17;;;;;;;22.25;13.57;;;;;;;1.93;100.00;102154.19;5980625;29;20063;-85
2022/04/17 04:28:37;;;;;;;18.98;13.52;;;;;;;1.97;100.00;102137.13;5987486;29;20045;-85
2022/04/17 04:31:38;;;;;;;20.70;13.85;;;;;;;1.99;100.00;102140.50;5989459;29;20386;-85
2022/04/17 04:34:40;;;;;;;19.00;13.88;;;;;;;2.08;100.00;102144.59;5989569;29;20047;-85
2022/04/17 04:37:42;;;;;;;21.23;13.55;;;;;;;2.17;100.00;102149.56;5973058;29;20051;-85
2022/04/17 04:40:44;;;;;;;20.77;12.82;;;;;;;2.19;100.00;102155.47;5980495;29;20054;-85
2022/04/17 04:43:45;;;;;;;18.63;12.63;;;;;;;2.23;100.00;102159.66;5980131;29;20094;-86
2022/04/17 04:46:47;;;;;;;19.08;13.05;;;;;;;2.24;100.00;102160.50;5987264;29;20058;-86
2022/04/17 04:49:49;;;;;;;20.08;12.77;;;;;;;2.26;100.00;102162.16;5977228;29;20046;-86
2022/04/17 04:52:51;;;;;;;22.30;13.35;;;;;;;2.29;100.00;102164.66;5978935;29;20113;-86
2022/04/17 04:55:54;;;;;;;20.20;12.98;;;;;;;2.31;100.00;102167.16;5976124;29;20242;-86
2022/04/17 04:58:56;;;;;;;21.75;13.38;;;;;;;2.37;100.00;102157.69;5989789;29;20432;-86
2022/04/17 05:01:58;;;;;;;20.85;13.70;;;;;;;2.38;100.00;102155.97;5975239;29;20057;-85
2022/04/17 05:05:00;;;;;;;19.70;13.95;;;;;;;2.42;100.00;102162.72;5980211;29;20493;-86
2022/04/17 05:08:01;;;;;;;19.42;13.40;;;;;;;2.46;100.00;102166.06;5977583;29;20203;-85
2022/04/17 05:11:03;;;;;;;19.05;13.63;;;;;;;2.50;100.00;102165.97;5982884;29;20061;-86
2022/04/17 05:14:09;;;;;;;18.50;12.77;;;;;;;2.54;100.00;102164.22;5988159;29;20050;-85
2022/04/17 05:17:11;;;;;;;23.02;14.77;;;;;;;2.59;100.00;102170.09;5980065;29;20053;-85
2022/04/17 05:20:15;;;;;;;22.23;13.30;;;;;;;2.64;100.00;102165.72;5975699;29;20046;-86
2022/04/17 05:23:26;;;;;;;19.13;13.05;;;;;;;2.68;100.00;102167.31;5971176;29;20546;-86
2022/04/17 05:26:27;;;;;;;;;;;;;;;2.72;100.00;102163.84;5976996;29;20055;-86
2022/04/17 05:29:29;;;;;;;19.05;12.55;;;;;;;2.75;100.00;102166.34;5976241;29;20027;-85
2022/04/17 05:32:31;;;;;;;19.08;12.77;;;;;;;2.78;100.00;102176.53;5990284;29;20041;-86
2022/04/17 05:35:33;;;;;;;17.88;12.68;;;;;;;2.85;100.00;102173.84;5984189;29;20076;-86
2022/04/17 05:38:34;;;;;;;18.98;12.27;;;;;;;2.88;100.00;102168.66;5972214;29;20050;-86
2022/04/17 05:41:37;;;;;;;20.15;13.43;;;;;;;2.93;100.00;102174.50;5978395;29;20045;-86
2022/04/17 05:44:39;;;;;;;18.65;12.75;;;;;;;3.00;100.00;102178.63;5976526;29;20133;-86
2022/04/17 05:47:43;;;;;;;18.23;13.68;;;;;;;3.05;100.00;102176.81;5975745;29;20062;-86
2022/04/17 05:50:47;;;;;;;20.80;12.55;;;;;;;3.09;100.00;102172.50;5969564;29;20058;-86
2022/04/17 05:53:53;;;;;;;16.80;12.18;;;;;;;3.12;100.00;102185.22;5978042;29;20200;-85
2022/04/17 05:57:00;;;;;;;17.13;11.75;;;;;;;3.19;100.00;102179.09;5976435;29;20042;-86
2022/04/17 06:00:04;;;;;;;19.77;12.35;;;;;;;3.22;100.00;102177.28;5985534;29;20134;-86
2022/04/17 06:03:15;;;;;;;20.25;12.43;;;;;;;3.28;100.00;102185.72;5966969;29;20069;-85
2022/04/17 06:06:18;;;;;;;18.27;12.80;;;;;;;3.33;100.00;102189.88;5971213;29;20057;-86
2022/04/17 06:09:20;;;;;;;14.95;11.95;;;;;;;3.41;100.00;102179.47;5976921;29;20047;-85
2022/04/17 06:12:21;;;;;;;17.08;11.50;;;;;;;3.44;100.00;102187.91;5969553;29;20067;-86
2022/04/17 06:15:24;;;;;;;19.38;12.00;;;;;;;3.51;100.00;102185.22;5975322;29;20062;-86
2022/04/17 06:18:27;;;;;;;17.40;11.77;;;;;;;3.55;100.00;102186.81;5973903;29;20592;-86
2022/04/17 06:21:29;;;;;;;18.15;12.40;;;;;;;3.61;100.00;102181.56;5971999;29;20405;-86
2022/04/17 06:24:30;;;;;;;17.45;11.27;;;;;;;3.65;100.00;102178.91;5973635;29;20489;-86
2022/04/17 06:27:43;;;;;;;16.90;11.27;;;;;;;3.71;100.00;102174.53;5974183;29;20058;-86
2022/04/17 06:30:44;;;;;;;19.75;11.30;;;;;;;3.78;100.00;102176.06;5980326;29;20050;-86
2022/04/17 06:33:46;;;;;;;18.33;10.93;;;;;;;3.82;100.00;102168.25;5985084;29;20050;-86
2022/04/17 06:36:48;;;;;;;15.10;10.23;;;;;;;3.94;100.00;102172.22;5977981;29;20038;-86
2022/04/17 06:39:50;;;;;;;16.77;10.65;;;;;;;4.00;100.00;102177.22;5970165;29;20042;-86
2022/04/17 06:42:54;;;;;;;15.15;11.27;;;;;;;4.06;100.00;102169.38;5973182;29;20453;-86
2022/04/17 06:45:56;;;;;;;17.23;10.95;;;;;;;4.13;100.00;102170.06;5971967;29;20073;-86
2022/04/17 06:48:58;;;;;;;14.02;9.75;;;;;;;4.22;100.00;102171.53;5999488;29;20468;-86
2022/04/17 06:52:00;;;;;;;13.15;8.98;;;;;;;4.24;100.00;102173.16;5993521;29;20054;-86
2022/04/17 06:55:03;;;;;;;15.85;10.00;;;;;;;4.30;100.00;102169.63;5984700;29;20546;-86
2022/04/17 06:58:05;;;;;;;13.32;8.80;;;;;;;4.34;100.00;102180.63;5978038;29;20058;-85
2022/04/17 07:01:07;;;;;;;14.52;9.35;;;;;;;4.41;100.00;102172.75;5990565;29;20050;-86
2022/04/17 07:04:09;;;;;;;13.25;9.63;;;;;;;4.46;100.00;102175.19;5983887;29;20046;-86
2022/04/17 07:07:10;;;;;;;12.20;8.98;;;;;;;4.56;100.00;102170.66;5991618;29;20060;-85
2022/04/17 07:10:12;;;;;;;13.57;9.77;;;;;;;4.65;100.00;102170.41;5993936;29;20389;-85
2022/04/17 07:13:15;;;;;;;12.35;9.35;;;;;;;4.75;100.00;102175.22;5978849;29;20039;-85
2022/04/17 07:16:17;;;;;;;11.30;8.57;;;;;;;4.95;100.00;102178.97;5987447;29;20054;-85
2022/04/17 07:19:20;;;;;;;13.80;9.02;;;;;;;5.02;100.00;102170.19;5973893;29;20058;-85
2022/04/17 07:22:22;;;;;;;12.32;8.02;;;;;;;5.03;100.00;102168.47;5991210;29;20045;-85
2022/04/17 07:25:23;;;;;;;11.32;8.30;;;;;;;5.03;100.00;102177.00;5977304;29;20569;-85
2022/04/17 07:28:25;;;;;;;12.80;7.85;;;;;;;5.06;100.00;102176.06;5974703;29;20061;-85
2022/04/17 07:31:28;;;;;;;10.82;8.05;;;;;;;5.15;100.00;102173.25;5992935;29;20145;-86
2022/04/17 07:34:30;;;;;;;10.10;7.90;;;;;;;5.22;100.00;102177.31;5986234;29;20046;-85
2022/04/17 07:37:38;;;;;;;10.73;8.00;;;;;;;5.34;100.00;102176.94;5974071;29;20254;-86
2022/04/17 07:40:41;;;;;;;8.82;7.15;;;;;;;5.53;100.00;102168.66;5979296;29;20117;-86
2022/04/17 07:43:43;;;;;;;10.73;7.78;;;;;;;5.54;100.00;102163.47;5977918;29;20053;-86
2022/04/17 07:46:44;;;;;;;11.57;8.00;;;;;;;5.65;100.00;102167.44;5981645;29;20504;-85
2022/04/17 07:49:46;;;;;;;11.13;7.63;;;;;;;5.81;100.00;102158.31;5978864;29;20057;-86
2022/04/17 07:52:48;;;;;;;11.43;7.63;;;;;;;5.92;100.00;102163.13;5985951;29;20110;-86
2022/04/17 07:55:50;;;;;;;9.63;6.90;;;;;;;6.13;100.00;102165.00;5982022;29;20046;-86
2022/04/17 07:58:52;;;;;;;9.45;6.97;;;;;;;6.22;100.00;102167.28;5979782;29;20063;-85
2022/04/17 08:02:01;;;;;;;7.80;6.55;;;;;;;6.38;100.00;102162.41;5979390;29;20750;-85
2022/04/17 08:05:03;;;;;;;7.72;6.47;;;;;;;6.44;100.00;102166.53;5979833;29;20057;-85
2022/04/17 08:08:09;;;;;;;10.93;6.50;;;;;;;6.53;99.03;102166.19;5983434;29;20050;-86
2022/04/17 08:11:11;;;;;;;8.55;5.13;;;;;;;6.61;93.91;102163.38;5972365;29;20150;-86
2022/04/17 08:14:13;;;;;;;7.35;5.47;;;;;;;6.66;95.07;102164.88;5975226;29;20070;-86
2022/04/17 08:17:16;;;;;;;8.02;5.40;;;;;;;6.74;94.48;102154.31;5977136;29;20046;-86
2022/04/17 08:20:18;;;;;;;6.50;5.40;;;;;;;6.83;94.60;102150.53;5985166;29;20082;-86
2022/04/17 08:23:21;;;;;;;6.90;5.70;;;;;;;7.01;93.10;102143.88;5977153;29;20050;-86
2022/04/17 08:26:23;;;;;;;8.70;5.28;;;;;;;7.32;95.11;102144.34;5975334;29;20034;-85
2022/04/17 08:29:24;;;;;;;8.25;5.18;;;;;;;7.58;92.34;102145.06;5962010;29;20054;-86
2022/04/17 08:32:26;;;;;;;6.55;4.80;;;;;;;7.79;88.49;102145.09;5983998;29;20556;-85
2022/04/17 08:35:29;;;;;;;7.07;4.80;;;;;;;7.90;86.58;102140.31;5979784;29;20067;-85
2022/04/17 08:38:36;;;;;;;5.57;4.35;;;;;;;7.95;82.95;102151.31;5976798;29;20075;-85
2022/04/17 08:41:41;;;;;;;5.45;4.15;;;;;;;7.90;83.46;102138.59;5989880;29;20089;-86
2022/04/17 08:44:42;;;;;;;5.32;4.38;;;;;;;7.98;82.38;102140.84;5975648;29;20042;-86
2022/04/17 08:47:45;;;;;;;7.20;4.80;;;;;;;8.12;83.09;102138.53;5975615;29;20052;-86
2022/04/17 08:50:51;;;;;;;8.43;4.72;;;;;;;8.24;82.32;102134.56;5996115;29;20043;-86
2022/04/17 08:53:56;;;;;;;7.82;5.35;;;;;;;8.32;82.93;102139.41;5989599;29;20061;-86
2022/04/17 08:56:58;;;;;;;5.65;4.88;;;;;;;8.46;84.71;102131.94;5981836;29;20084;-86
2022/04/17 09:00:01;;;;;;;7.13;4.80;;;;;;;8.55;83.71;102128.94;5986616;29;20034;-86
2022/04/17 09:03:07;;;;;;;5.88;4.25;;;;;;;8.62;81.66;102121.75;5982292;29;20088;-86
2022/04/17 09:06:09;;;;;;;6.32;4.30;;;;;;;8.85;79.09;102118.13;5975483;29;20071;-85
2022/04/17 09:09:19;;;;;;;5.65;4.40;;;;;;;8.99;76.67;102109.72;5979534;29;20336;-86
2022/04/17 09:12:23;;;;;;;6.00;3.70;;;;;;;9.09;73.34;102113.56;5982391;29;20042;-86
2022/04/17 09:15:28;;;;;;;3.42;2.92;;;;;;;9.09;71.10;102100.63;5978471;29;20178;-85
2022/04/17 09:18:31;;;;;;;7.25;3.50;;;;;;;9.09;71.91;102104.97;5981639;29;20042;-86
2022/04/17 09:21:34;;;;;;;3.42;2.65;;;;;;;9.10;66.25;102094.56;5983843;29;20042;-86
2022/04/17 09:24:37;;;;;;;4.55;3.25;;;;;;;9.14;66.49;102090.94;5978210;29;20038;-86
2022/04/17 09:27:54;;;;;;;6.00;3.88;;;;;;;9.32;70.74;102093.56;5969220;29;20513;-86
2022/04/17 09:30:59;;;;;;;4.00;3.03;;;;;;;9.54;67.05;102094.19;5968283;29;20042;-86
2022/04/17 09:34:07;;;;;;;5.10;2.90;;;;;;;9.73;62.09;102088.09;5977510;29;20572;-86
2022/04/17 09:37:17;;;;;;;4.60;3.67;;;;;;;10.00;58.66;102083.25;5970780;29;20516;-87
2022/04/17 09:40:20;;;;;;;4.68;3.35;;;;;;;10.30;57.44;102088.63;5984190;29;20057;-86
2022/04/17 09:43:22;;;;;;;4.05;2.83;;;;;;;10.66;52.73;102082.41;5982546;29;20045;-86
2022/04/17 09:46:24;;;;;;;4.45;2.75;;;;;;;10.91;53.21;102069.78;5980120;29;20053;-86
2022/04/17 09:49:25;;;;;;;3.88;2.95;;;;;;;10.96;51.28;102078.13;5975172;29;20081;-86
2022/04/17 09:52:31;;;;;;;3.15;2.72;;;;;;;10.95;52.89;102071.25;5974688;29;20409;-86
2022/04/17 09:55:38;;;;;;;2.92;2.53;;;;;;;10.90;50.47;102070.66;5969880;29;20043;-86
2022/04/17 09:58:51;;;;;;;3.47;2.85;;;;;;;10.74;47.20;102062.94;5989554;29;20042;-87
2022/04/17 10:01:55;;;;;;;3.65;3.00;;;;;;;10.61;50.00;102051.56;5974164;29;20078;-86
2022/04/17 10:04:58;;;;;;;2.95;2.47;;;;;;;10.62;52.55;102042.88;5978677;29;20133;-87
2022/04/17 10:08:01;;;;;;;3.97;2.75;;;;;;;10.63;50.31;102046.28;5984478;29;20045;-87
2022/04/17 10:11:04;;;;;;;3.42;2.42;;;;;;;10.68;50.55;102039.97;5985794;29;20093;-87
2022/04/17 10:14:06;;;;;;;2.92;2.63;;;;;;;10.82;50.75;102031.41;5981993;29;20161;-87
2022/04/17 10:17:09;;;;;;;4.03;2.75;;;;;;;10.91;49.10;102030.91;5979680;29;20050;-87
2022/04/17 10:20:13;;;;;;;3.88;2.97;;;;;;;11.00;47.52;102034.72;5975640;29;20073;-87
2022/04/17 10:23:17;;;;;;;4.88;3.15;;;;;;;11.08;49.01;102027.38;5985403;29;20057;-87
2022/04/17 10:26:20;;;;;;;4.70;3.20;;;;;;;11.13;46.41;102024.50;5989181;29;20046;-87
2022/04/17 10:29:41;;;;;;;3.55;3.00;;;;;;;11.18;45.26;102007.78;5990731;29;20480;-88
2022/04/17 10:33:01;;;;;;;5.00;2.70;;;;;;;11.17;46.78;102010.44;5987492;29;20070;-88
2022/04/17 10:36:09;;;;;;;;;;;;;;;11.28;47.58;102002.91;5986473;29;20055;-88
2022/04/17 10:39:35;;;;;;;4.05;2.85;;;;;;;11.36;45.83;101992.06;5979165;29;19939;-88
2022/04/17 10:42:55;;;;;;;2.60;2.40;;;;;;;11.49;46.14;101984.41;5987038;29;20042;-88
2022/04/17 10:46:22;;;;;;;3.70;2.65;;;;;;;11.66;47.46;101989.41;5977095;29;20113;-88
2022/04/17 10:49:34;;;;;;;2.22;2.00;;;;;;;11.89;44.67;101987.22;5985600;29;20488;-88
2022/04/17 10:52:37;;;;;;;2.83;2.20;;;;;;;11.96;42.50;101978.13;5983868;29;20061;-89
2022/04/17 10:56:14;;;;;;;2.78;2.13;;;;;;;12.14;42.80;101976.97;5980967;29;20045;-89
2022/04/17 10:59:19;;;;;;;3.20;2.00;;;;;;;12.22;38.10;101971.31;6000313;29;20052;-89
2022/04/17 11:02:24;;;;;;;2.55;2.20;;;;;;;12.27;40.48;101967.53;5987390;29;20046;-89
2022/04/17 11:09:21;;;;;;;2.63;2.10;;;;;;;12.50;40.29;101960.84;5989078;29;20081;-88
2022/04/17 11:12:27;;;;;;;3.65;2.05;;;;;;;12.56;40.67;101951.81;5984670;29;20050;-89
2022/04/17 11:15:29;;;;;;;3.78;2.20;;;;;;;12.64;41.30;101951.34;5972746;29;20494;-89
2022/04/17 11:18:33;;;;;;;4.30;2.38;;;;;;;12.62;40.50;101946.25;5966185;29;20503;-89
2022/04/17 11:21:38;;;;;;;2.78;2.00;;;;;;;12.72;42.58;101954.28;5986501;29;20046;-89
2022/04/17 11:24:55;;;;;;;4.55;2.40;;;;;;;12.93;42.99;101936.44;5977393;29;20050;-89
2022/04/17 11:28:02;;;;;;;3.15;1.85;;;;;;;13.06;41.66;101949.44;5981124;29;20066;-89
2022/04/17 11:31:31;;;;;;;3.30;1.83;;;;;;;13.19;41.73;101937.31;5977605;29;20054;-89
2022/04/17 11:34:47;;;;;;;2.83;1.80;;;;;;;13.26;38.52;101937.72;5983948;29;20505;-89
2022/04/17 11:38:01;;;;;;;2.13;1.67;;;;;;;13.31;39.03;101926.09;5976604;29;20047;-89
2022/04/17 11:41:07;;;;;;;3.58;1.67;;;;;;;13.44;42.30;101922.66;5976815;29;20057;-89
2022/04/17 11:44:10;;;;;;;1.80;1.50;;;;;;;13.52;41.89;101921.19;5974423;29;20049;-89
2022/04/17 11:47:20;;;;;;;2.45;1.83;;;;;;;13.73;40.43;101910.22;5980134;29;20051;-89
2022/04/17 11:50:29;;;;;;;1.70;1.50;;;;;;;13.79;38.74;101912.41;5976544;29;20050;-88
2022/04/17 11:53:33;;;;;;;1.70;1.30;;;;;;;13.89;38.66;101905.63;5977535;29;20050;-89
2022/04/17 11:56:49;;;;;;;3.92;1.30;;;;;;;13.96;37.92;101888.63;5977499;29;20042;-89
2022/04/17 11:59:54;;;;;;;2.67;1.40;;;;;;;13.98;35.98;101889.31;5977373;29;20089;-89
2022/04/17 12:02:58;;;;;;;2.22;1.55;;;;;;;14.15;36.53;101884.69;5974259;29;20047;-89
2022/04/17 12:06:02;;;;;;;1.73;1.50;;;;;;;14.34;37.20;101877.19;5974008;29;20169;-89
2022/04/17 12:09:05;;;;;;;2.25;1.42;;;;;;;14.50;34.41;101876.88;5976157;29;20054;-89
2022/04/17 12:12:15;;;;;;;1.67;1.38;;;;;;;14.62;37.30;101877.78;5979783;29;20129;-89
2022/04/17 12:15:16;;;;;;;1.80;1.40;;;;;;;14.77;35.06;101871.44;5973721;29;20077;-89
2022/04/17 12:18:19;;;;;;;1.88;1.30;;;;;;;14.85;36.29;101874.28;5974225;29;20061;-89
2022/04/17 12:21:28;;;;;;;3.22;1.77;;;;;;;15.02;34.83;101875.63;5986627;29;20046;-89
2022/04/17 12:24:29;;;;;;;2.63;1.83;;;;;;;15.11;34.85;101871.47;5984878;29;20081;-88
2022/04/17 12:27:32;;;;;;;2.10;1.20;;;;;;;15.25;33.43;101867.81;5986623;29;20561;-90
2022/04/17 12:30:34;;;;;;;1.45;1.30;;;;;;;15.45;34.44;101856.66;5984652;29;20045;-90
2022/04/17 12:33:36;;;;;;;1.40;1.30;;;;;;;15.70;33.42;101850.38;5977537;29;20129;-91
2022/04/17 12:36:40;;;;;;;1.42;1.10;;;;;;;15.90;32.18;101846.16;5974865;29;20408;-90
2022/04/17 12:39:42;;;;;;;1.23;1.00;;;;;;;15.67;33.54;101847.94;5980627;29;20182;-90
2022/04/17 12:42:44;;;;;;;2.60;1.50;;;;;;;15.50;33.24;101841.47;5979686;29;20165;-90
2022/04/17 12:46:04;;;;;;;3.05;1.17;;;;;;;15.60;34.04;101838.97;5982772;29;20524;-90
2022/04/17 12:49:18;;;;;;;1.35;1.17;;;;;;;15.75;34.51;101830.88;5979093;29;20054;-90
2022/04/17 12:52:21;;;;;;;2.30;1.30;;;;;;;15.88;36.09;101828.97;5979501;29;20034;-90
2022/04/17 12:55:30;;;;;;;1.73;1.30;;;;;;;16.11;35.39;101835.75;5979319;29;20153;-90
2022/04/17 12:58:56;;;;;;;2.08;1.20;;;;;;;16.33;33.96;101834.81;5989190;29;20054;-89
2022/04/17 13:02:11;;;;;;;1.58;1.17;;;;;;;16.42;31.06;101822.78;5975213;29;20058;-89
2022/04/17 13:05:25;;;;;;;1.77;1.20;;;;;;;16.48;31.57;101817.03;5981673;29;20046;-88
2022/04/17 13:08:27;;;;;;;2.83;1.20;;;;;;;16.56;32.13;101808.56;5969258;29;20127;-89
2022/04/17 13:11:33;;;;;;;1.77;1.40;;;;;;;16.64;34.15;101800.88;5982395;29;20046;-89
2022/04/17 13:14:54;;;;;;;1.60;1.48;;;;;;;16.75;35.04;101813.88;5978572;29;20030;-88
2022/04/17 13:17:57;;;;;;;2.47;1.60;;;;;;;16.67;35.07;101800.66;5977325;29;20776;-88
2022/04/17 13:20:59;;;;;;;1.45;1.30;;;;;;;16.83;34.98;101809.84;5977123;29;20500;-89
2022/04/17 13:24:01;;;;;;;2.45;1.50;;;;;;;17.00;35.54;101799.56;5978635;29;20047;-88
2022/04/17 13:27:03;;;;;;;2.17;1.52;;;;;;;17.15;35.20;101796.59;5982666;29;20050;-88
2022/04/17 13:30:10;;;;;;;1.70;1.60;;;;;;;17.25;32.93;101794.03;5977068;29;20660;-88
2022/04/17 13:33:12;;;;;;;2.55;1.92;;;;;;;17.32;31.73;101788.13;5997685;29;20133;-88
2022/04/17 13:36:13;;;;;;;2.50;1.80;;;;;;;17.41;32.88;101789.09;5971910;29;20042;-87
2022/04/17 13:39:20;;;;;;;2.20;1.90;;;;;;;17.48;32.18;101782.34;5986832;29;20042;-88
2022/04/17 13:42:22;;;;;;;2.75;1.92;;;;;;;17.48;34.01;101771.88;5976768;29;20123;-87
2022/04/17 13:45:24;;;;;;;2.58;2.03;;;;;;;17.50;32.39;101766.50;5972650;29;20102;-87
2022/04/17 13:48:26;;;;;;;3.13;2.10;;;;;;;17.52;31.53;101770.66;5975686;29;20057;-87
2022/04/17 13:51:29;;;;;;;4.53;2.53;;;;;;;17.60;31.30;101751.63;5981057;29;20176;-87
2022/04/17 13:54:32;;;;;;;3.00;2.13;;;;;;;17.63;32.26;101753.97;5979720;29;20381;-88
2022/04/17 13:57:34;;;;;;;3.25;2.28;;;;;;;17.70;32.49;101749.84;5976946;29;20722;-88
2022/04/17 14:00:36;;;;;;;2.17;1.98;;;;;;;17.80;33.16;101747.25;5986297;29;20120;-87
2022/04/17 14:03:41;;;;;;;2.38;2.17;;;;;;;17.83;33.84;101750.41;5984652;29;20053;-89
2022/04/17 14:06:43;;;;;;;3.72;2.22;;;;;;;17.82;32.42;101742.72;5980208;29;20050;-89
2022/04/17 14:09:45;;;;;;;2.22;2.03;;;;;;;18.04;34.08;101741.59;5957544;29;20112;-89
2022/04/17 14:12:46;;;;;;;2.40;2.20;;;;;;;18.03;34.10;101730.25;5977833;29;20130;-89
2022/04/17 14:15:48;;;;;;;3.22;2.33;;;;;;;18.06;35.47;101724.78;5982731;29;20496;-89
2022/04/17 14:18:50;;;;;;;3.55;2.58;;;;;;;18.24;33.62;101726.66;5979432;29;20053;-89